sensor_id;sensor_type;location;lat;lon;timestamp;P1;durP1;ratioP1;P2;durP2;ratioP2
36585;SDS011;22591;48.314;11.562;2023-06-22T00:01:51;8.95;;;6.72;;
36585;SDS011;22591;48.314;11.562;2023-06-22T00:04:16;9.63;;;7.15;;
36585;SDS011;22591;48.314;11.562;2023-06-22T00:06:42;7.18;;;6.40;;
36585;SDS011;22591;48.314;11.562;2023-06-22T00:09:07;8.25;;;7.43;;
36585;SDS011;22591;48.314;11.562;2023-06-22T00:11:33;9.60;;;7.43;;
36585;SDS011;22591;48.314;11.562;2023-06-22T00:13:59;9.10;;;6.97;;
36585;SDS011;22591;48.314;11.562;2023-06-22T00:16:25;9.75;;;7.57;;
36585;SDS011;22591;48.314;11.562;2023-06-22T00:18:50;10.73;;;7.18;;
36585;SDS011;22591;48.314;11.562;2023-06-22T00:21:16;8.02;;;7.30;;
36585;SDS011;22591;48.314;11.562;2023-06-22T00:23:41;9.88;;;8.05;;
36585;SDS011;22591;48.314;11.562;2023-06-22T00:26:08;9.30;;;6.93;;
36585;SDS011;22591;48.314;11.562;2023-06-22T00:28:33;12.05;;;7.85;;
36585;SDS011;22591;48.314;11.562;2023-06-22T00:30:59;9.60;;;7.30;;
36585;SDS011;22591;48.314;11.562;2023-06-22T00:33:25;9.07;;;7.53;;
36585;SDS011;22591;48.314;11.562;2023-06-22T00:35:51;8.98;;;7.32;;
36585;SDS011;22591;48.314;11.562;2023-06-22T00:38:18;9.02;;;7.20;;
36585;SDS011;22591;48.314;11.562;2023-06-22T00:40:44;9.88;;;7.40;;
36585;SDS011;22591;48.314;11.562;2023-06-22T00:43:09;8.95;;;7.43;;
36585;SDS011;22591;48.314;11.562;2023-06-22T00:45:35;10.55;;;7.82;;
36585;SDS011;22591;48.314;11.562;2023-06-22T00:48:01;13.80;;;7.70;;
36585;SDS011;22591;48.314;11.562;2023-06-22T00:50:29;11.95;;;7.30;;
36585;SDS011;22591;48.314;11.562;2023-06-22T00:52:58;9.75;;;8.23;;
36585;SDS011;22591;48.314;11.562;2023-06-22T00:55:25;10.35;;;7.00;;
36585;SDS011;22591;48.314;11.562;2023-06-22T00:57:52;8.15;;;7.25;;
36585;SDS011;22591;48.314;11.562;2023-06-22T01:00:21;10.60;;;7.57;;
36585;SDS011;22591;48.314;11.562;2023-06-22T01:02:50;10.45;;;7.25;;
36585;SDS011;22591;48.314;11.562;2023-06-22T01:05:18;8.75;;;7.80;;
36585;SDS011;22591;48.314;11.562;2023-06-22T01:13:10;8.68;;;7.63;;
36585;SDS011;22591;48.314;11.562;2023-06-22T01:15:44;14.98;;;7.75;;
36585;SDS011;22591;48.314;11.562;2023-06-22T01:18:14;7.97;;;6.88;;
36585;SDS011;22591;48.314;11.562;2023-06-22T01:20:41;13.98;;;8.00;;
36585;SDS011;22591;48.314;11.562;2023-06-22T01:31:20;10.75;;;7.85;;
36585;SDS011;22591;48.314;11.562;2023-06-22T01:33:51;8.35;;;7.30;;
36585;SDS011;22591;48.314;11.562;2023-06-22T01:36:19;7.80;;;6.95;;
36585;SDS011;22591;48.314;11.562;2023-06-22T01:38:47;10.45;;;6.97;;
36585;SDS011;22591;48.314;11.562;2023-06-22T01:41:14;10.73;;;7.15;;
36585;SDS011;22591;48.314;11.562;2023-06-22T01:43:41;10.85;;;8.00;;
36585;SDS011;22591;48.314;11.562;2023-06-22T01:46:08;10.98;;;7.82;;
36585;SDS011;22591;48.314;11.562;2023-06-22T01:48:35;10.48;;;7.13;;
36585;SDS011;22591;48.314;11.562;2023-06-22T01:51:01;11.63;;;7.65;;
36585;SDS011;22591;48.314;11.562;2023-06-22T01:53:27;7.65;;;6.88;;
36585;SDS011;22591;48.314;11.562;2023-06-22T01:55:53;7.93;;;7.20;;
36585;SDS011;22591;48.314;11.562;2023-06-22T01:58:19;12.80;;;7.85;;
36585;SDS011;22591;48.314;11.562;2023-06-22T02:00:48;10.68;;;7.22;;
36585;SDS011;22591;48.314;11.562;2023-06-22T02:03:19;10.43;;;7.00;;
36585;SDS011;22591;48.314;11.562;2023-06-22T02:05:49;7.78;;;6.95;;
36585;SDS011;22591;48.314;11.562;2023-06-22T02:08:22;8.98;;;6.93;;
36585;SDS011;22591;48.314;11.562;2023-06-22T02:10:51;7.70;;;6.70;;
36585;SDS011;22591;48.314;11.562;2023-06-22T02:13:19;10.07;;;7.22;;
36585;SDS011;22591;48.314;11.562;2023-06-22T02:15:45;9.82;;;6.13;;
36585;SDS011;22591;48.314;11.562;2023-06-22T02:18:12;11.32;;;7.70;;
36585;SDS011;22591;48.314;11.562;2023-06-22T02:20:39;10.43;;;7.35;;
36585;SDS011;22591;48.314;11.562;2023-06-22T02:23:05;10.85;;;7.57;;
36585;SDS011;22591;48.314;11.562;2023-06-22T02:25:32;15.70;;;7.75;;
36585;SDS011;22591;48.314;11.562;2023-06-22T02:27:58;9.65;;;7.78;;
36585;SDS011;22591;48.314;11.562;2023-06-22T02:30:24;11.82;;;8.55;;
36585;SDS011;22591;48.314;11.562;2023-06-22T02:32:49;7.95;;;7.15;;
36585;SDS011;22591;48.314;11.562;2023-06-22T02:35:23;9.38;;;7.53;;
36585;SDS011;22591;48.314;11.562;2023-06-22T02:37:56;10.25;;;8.02;;
36585;SDS011;22591;48.314;11.562;2023-06-22T02:40:25;7.93;;;7.22;;
36585;SDS011;22591;48.314;11.562;2023-06-22T02:42:51;14.98;;;8.50;;
36585;SDS011;22591;48.314;11.562;2023-06-22T02:45:17;10.63;;;8.68;;
36585;SDS011;22591;48.314;11.562;2023-06-22T02:47:43;10.40;;;8.50;;
36585;SDS011;22591;48.314;11.562;2023-06-22T02:50:09;12.02;;;7.80;;
36585;SDS011;22591;48.314;11.562;2023-06-22T02:52:35;11.02;;;7.90;;
36585;SDS011;22591;48.314;11.562;2023-06-22T02:55:00;7.95;;;7.18;;
36585;SDS011;22591;48.314;11.562;2023-06-22T02:57:26;9.65;;;8.10;;
36585;SDS011;22591;48.314;11.562;2023-06-22T02:59:52;10.98;;;7.80;;
36585;SDS011;22591;48.314;11.562;2023-06-22T03:02:17;8.07;;;7.32;;
36585;SDS011;22591;48.314;11.562;2023-06-22T03:04:45;8.95;;;7.25;;
36585;SDS011;22591;48.314;11.562;2023-06-22T03:07:14;12.32;;;8.23;;
36585;SDS011;22591;48.314;11.562;2023-06-22T03:09:40;12.80;;;8.73;;
36585;SDS011;22591;48.314;11.562;2023-06-22T03:12:07;10.80;;;8.75;;
36585;SDS011;22591;48.314;11.562;2023-06-22T03:14:33;13.52;;;8.27;;
36585;SDS011;22591;48.314;11.562;2023-06-22T03:16:58;10.13;;;8.25;;
36585;SDS011;22591;48.314;11.562;2023-06-22T03:19:28;9.13;;;8.00;;
36585;SDS011;22591;48.314;11.562;2023-06-22T03:21:54;12.63;;;8.32;;
36585;SDS011;22591;48.314;11.562;2023-06-22T03:24:20;11.48;;;8.63;;
36585;SDS011;22591;48.314;11.562;2023-06-22T03:26:46;11.27;;;7.40;;
36585;SDS011;22591;48.314;11.562;2023-06-22T03:29:11;11.82;;;7.38;;
36585;SDS011;22591;48.314;11.562;2023-06-22T03:31:37;9.55;;;8.57;;
36585;SDS011;22591;48.314;11.562;2023-06-22T03:34:03;10.75;;;8.10;;
36585;SDS011;22591;48.314;11.562;2023-06-22T03:36:28;10.30;;;8.50;;
36585;SDS011;22591;48.314;11.562;2023-06-22T03:38:54;10.27;;;8.43;;
36585;SDS011;22591;48.314;11.562;2023-06-22T03:41:20;10.77;;;7.72;;
36585;SDS011;22591;48.314;11.562;2023-06-22T03:43:45;13.73;;;8.87;;
36585;SDS011;22591;48.314;11.562;2023-06-22T03:46:11;10.30;;;9.10;;
36585;SDS011;22591;48.314;11.562;2023-06-22T03:48:37;11.30;;;9.55;;
36585;SDS011;22591;48.314;11.562;2023-06-22T03:51:03;11.80;;;9.20;;
36585;SDS011;22591;48.314;11.562;2023-06-22T03:53:29;12.50;;;8.68;;
36585;SDS011;22591;48.314;11.562;2023-06-22T03:55:54;11.90;;;8.27;;
36585;SDS011;22591;48.314;11.562;2023-06-22T03:58:20;12.98;;;8.27;;
36585;SDS011;22591;48.314;11.562;2023-06-22T04:00:46;9.63;;;7.70;;
36585;SDS011;22591;48.314;11.562;2023-06-22T04:03:13;10.30;;;8.38;;
36585;SDS011;22591;48.314;11.562;2023-06-22T04:05:39;12.55;;;8.68;;
36585;SDS011;22591;48.314;11.562;2023-06-22T04:08:05;12.38;;;8.55;;
36585;SDS011;22591;48.314;11.562;2023-06-22T04:10:30;10.68;;;8.80;;
36585;SDS011;22591;48.314;11.562;2023-06-22T04:12:56;15.63;;;8.65;;
36585;SDS011;22591;48.314;11.562;2023-06-22T04:15:22;11.57;;;7.65;;
36585;SDS011;22591;48.314;11.562;2023-06-22T04:17:47;10.73;;;7.93;;
36585;SDS011;22591;48.314;11.562;2023-06-22T04:20:13;11.38;;;7.57;;
36585;SDS011;22591;48.314;11.562;2023-06-22T04:22:38;10.52;;;7.88;;
36585;SDS011;22591;48.314;11.562;2023-06-22T04:25:05;8.32;;;7.40;;
36585;SDS011;22591;48.314;11.562;2023-06-22T04:27:32;10.02;;;8.05;;
36585;SDS011;22591;48.314;11.562;2023-06-22T04:30:02;13.77;;;8.40;;
36585;SDS011;22591;48.314;11.562;2023-06-22T04:32:28;15.90;;;9.00;;
36585;SDS011;22591;48.314;11.562;2023-06-22T04:34:54;8.27;;;7.47;;
36585;SDS011;22591;48.314;11.562;2023-06-22T04:37:20;9.77;;;7.55;;
36585;SDS011;22591;48.314;11.562;2023-06-22T04:39:48;9.23;;;7.88;;
36585;SDS011;22591;48.314;11.562;2023-06-22T04:42:14;8.88;;;7.97;;
36585;SDS011;22591;48.314;11.562;2023-06-22T04:44:39;12.15;;;8.43;;
36585;SDS011;22591;48.314;11.562;2023-06-22T04:47:06;8.55;;;7.70;;
36585;SDS011;22591;48.314;11.562;2023-06-22T04:49:33;10.75;;;8.52;;
36585;SDS011;22591;48.314;11.562;2023-06-22T04:52:03;11.45;;;8.63;;
36585;SDS011;22591;48.314;11.562;2023-06-22T04:54:30;9.10;;;7.65;;
36585;SDS011;22591;48.314;11.562;2023-06-22T04:56:58;10.35;;;8.27;;
36585;SDS011;22591;48.314;11.562;2023-06-22T04:59:24;13.35;;;7.63;;
36585;SDS011;22591;48.314;11.562;2023-06-22T05:01:58;9.10;;;7.47;;
36585;SDS011;22591;48.314;11.562;2023-06-22T05:04:25;8.40;;;7.35;;
36585;SDS011;22591;48.314;11.562;2023-06-22T05:06:53;8.25;;;7.25;;
36585;SDS011;22591;48.314;11.562;2023-06-22T05:09:19;8.55;;;7.55;;
36585;SDS011;22591;48.314;11.562;2023-06-22T05:11:45;9.63;;;7.03;;
36585;SDS011;22591;48.314;11.562;2023-06-22T05:14:11;9.27;;;7.90;;
36585;SDS011;22591;48.314;11.562;2023-06-22T05:16:37;8.98;;;7.05;;
36585;SDS011;22591;48.314;11.562;2023-06-22T05:19:03;15.48;;;7.65;;
36585;SDS011;22591;48.314;11.562;2023-06-22T05:21:29;7.43;;;6.82;;
36585;SDS011;22591;48.314;11.562;2023-06-22T05:23:55;9.18;;;7.57;;
36585;SDS011;22591;48.314;11.562;2023-06-22T05:26:25;10.63;;;7.00;;
36585;SDS011;22591;48.314;11.562;2023-06-22T05:28:51;8.77;;;7.53;;
36585;SDS011;22591;48.314;11.562;2023-06-22T05:31:18;11.65;;;8.00;;
36585;SDS011;22591;48.314;11.562;2023-06-22T05:33:47;11.15;;;7.47;;
36585;SDS011;22591;48.314;11.562;2023-06-22T05:36:14;9.60;;;6.78;;
36585;SDS011;22591;48.314;11.562;2023-06-22T05:38:40;9.68;;;6.88;;
36585;SDS011;22591;48.314;11.562;2023-06-22T05:41:06;9.43;;;7.25;;
36585;SDS011;22591;48.314;11.562;2023-06-22T05:43:32;8.52;;;6.85;;
36585;SDS011;22591;48.314;11.562;2023-06-22T05:45:59;6.93;;;6.32;;
36585;SDS011;22591;48.314;11.562;2023-06-22T05:48:25;7.57;;;6.78;;
36585;SDS011;22591;48.314;11.562;2023-06-22T05:50:51;9.13;;;7.05;;
36585;SDS011;22591;48.314;11.562;2023-06-22T05:53:17;12.43;;;7.50;;
36585;SDS011;22591;48.314;11.562;2023-06-22T05:55:42;8.40;;;7.22;;
36585;SDS011;22591;48.314;11.562;2023-06-22T05:58:08;9.02;;;7.05;;
36585;SDS011;22591;48.314;11.562;2023-06-22T06:00:34;7.32;;;6.63;;
36585;SDS011;22591;48.314;11.562;2023-06-22T06:03:00;7.68;;;6.88;;
36585;SDS011;22591;48.314;11.562;2023-06-22T06:05:31;9.55;;;6.97;;
36585;SDS011;22591;48.314;11.562;2023-06-22T06:07:58;9.18;;;6.25;;
36585;SDS011;22591;48.314;11.562;2023-06-22T06:10:25;6.70;;;5.35;;
36585;SDS011;22591;48.314;11.562;2023-06-22T06:12:50;10.00;;;6.60;;
36585;SDS011;22591;48.314;11.562;2023-06-22T06:15:16;9.57;;;6.15;;
36585;SDS011;22591;48.314;11.562;2023-06-22T06:17:48;11.00;;;6.20;;
36585;SDS011;22591;48.314;11.562;2023-06-22T06:20:18;7.55;;;5.43;;
36585;SDS011;22591;48.314;11.562;2023-06-22T06:22:45;10.65;;;6.50;;
36585;SDS011;22591;48.314;11.562;2023-06-22T06:25:11;10.30;;;5.70;;
36585;SDS011;22591;48.314;11.562;2023-06-22T06:27:44;10.35;;;6.50;;
36585;SDS011;22591;48.314;11.562;2023-06-22T06:30:11;8.23;;;6.25;;
36585;SDS011;22591;48.314;11.562;2023-06-22T06:32:38;8.80;;;4.93;;
36585;SDS011;22591;48.314;11.562;2023-06-22T06:35:07;10.43;;;5.55;;
36585;SDS011;22591;48.314;11.562;2023-06-22T06:37:39;9.57;;;5.50;;
36585;SDS011;22591;48.314;11.562;2023-06-22T06:40:07;10.70;;;5.72;;
36585;SDS011;22591;48.314;11.562;2023-06-22T06:42:35;8.05;;;6.25;;
36585;SDS011;22591;48.314;11.562;2023-06-22T06:45:02;9.82;;;5.75;;
36585;SDS011;22591;48.314;11.562;2023-06-22T06:47:29;8.23;;;5.60;;
36585;SDS011;22591;48.314;11.562;2023-06-22T06:49:55;11.07;;;6.70;;
36585;SDS011;22591;48.314;11.562;2023-06-22T06:52:20;6.25;;;5.47;;
36585;SDS011;22591;48.314;11.562;2023-06-22T06:54:46;8.63;;;6.18;;
36585;SDS011;22591;48.314;11.562;2023-06-22T06:57:11;10.18;;;6.50;;
36585;SDS011;22591;48.314;11.562;2023-06-22T06:59:38;9.77;;;6.72;;
36585;SDS011;22591;48.314;11.562;2023-06-22T07:02:04;9.98;;;6.53;;
36585;SDS011;22591;48.314;11.562;2023-06-22T07:04:30;8.85;;;5.13;;
36585;SDS011;22591;48.314;11.562;2023-06-22T07:06:55;8.23;;;5.82;;
36585;SDS011;22591;48.314;11.562;2023-06-22T07:09:21;7.82;;;5.93;;
36585;SDS011;22591;48.314;11.562;2023-06-22T07:11:46;6.93;;;5.43;;
36585;SDS011;22591;48.314;11.562;2023-06-22T07:14:12;8.10;;;5.72;;
36585;SDS011;22591;48.314;11.562;2023-06-22T07:16:37;8.82;;;6.40;;
36585;SDS011;22591;48.314;11.562;2023-06-22T07:19:03;12.07;;;6.13;;
36585;SDS011;22591;48.314;11.562;2023-06-22T07:21:28;13.57;;;5.75;;
36585;SDS011;22591;48.314;11.562;2023-06-22T07:23:54;10.27;;;5.88;;
36585;SDS011;22591;48.314;11.562;2023-06-22T07:26:19;8.32;;;5.57;;
36585;SDS011;22591;48.314;11.562;2023-06-22T07:28:45;7.53;;;5.00;;
36585;SDS011;22591;48.314;11.562;2023-06-22T07:31:11;7.25;;;5.70;;
36585;SDS011;22591;48.314;11.562;2023-06-22T07:33:36;12.20;;;5.65;;
36585;SDS011;22591;48.314;11.562;2023-06-22T07:36:02;10.45;;;5.70;;
36585;SDS011;22591;48.314;11.562;2023-06-22T07:38:32;7.13;;;5.25;;
36585;SDS011;22591;48.314;11.562;2023-06-22T07:40:58;9.20;;;5.35;;
36585;SDS011;22591;48.314;11.562;2023-06-22T07:43:23;8.43;;;5.35;;
36585;SDS011;22591;48.314;11.562;2023-06-22T07:45:49;5.70;;;4.40;;
36585;SDS011;22591;48.314;11.562;2023-06-22T07:48:21;6.95;;;4.50;;
36585;SDS011;22591;48.314;11.562;2023-06-22T07:50:47;10.25;;;5.20;;
36585;SDS011;22591;48.314;11.562;2023-06-22T07:53:13;10.20;;;5.28;;
36585;SDS011;22591;48.314;11.562;2023-06-22T07:55:39;12.05;;;5.78;;
36585;SDS011;22591;48.314;11.562;2023-06-22T07:58:04;6.95;;;5.88;;
36585;SDS011;22591;48.314;11.562;2023-06-22T08:00:30;12.27;;;5.28;;
36585;SDS011;22591;48.314;11.562;2023-06-22T08:02:55;9.30;;;5.13;;
36585;SDS011;22591;48.314;11.562;2023-06-22T08:05:21;9.27;;;5.68;;
36585;SDS011;22591;48.314;11.562;2023-06-22T08:07:47;9.40;;;5.90;;
36585;SDS011;22591;48.314;11.562;2023-06-22T08:10:13;11.32;;;5.72;;
36585;SDS011;22591;48.314;11.562;2023-06-22T08:12:41;11.90;;;5.53;;
36585;SDS011;22591;48.314;11.562;2023-06-22T08:15:07;13.02;;;5.00;;
36585;SDS011;22591;48.314;11.562;2023-06-22T08:17:33;11.25;;;5.63;;
36585;SDS011;22591;48.314;11.562;2023-06-22T08:19:59;9.23;;;5.13;;
36585;SDS011;22591;48.314;11.562;2023-06-22T08:22:24;5.75;;;5.13;;
36585;SDS011;22591;48.314;11.562;2023-06-22T08:24:50;13.15;;;6.13;;
36585;SDS011;22591;48.314;11.562;2023-06-22T08:27:15;12.25;;;5.13;;
36585;SDS011;22591;48.314;11.562;2023-06-22T08:29:43;7.75;;;5.20;;
36585;SDS011;22591;48.314;11.562;2023-06-22T08:32:10;11.07;;;5.85;;
36585;SDS011;22591;48.314;11.562;2023-06-22T08:34:36;11.98;;;5.75;;
36585;SDS011;22591;48.314;11.562;2023-06-22T08:37:02;9.48;;;5.78;;
36585;SDS011;22591;48.314;11.562;2023-06-22T08:39:31;9.35;;;5.68;;
36585;SDS011;22591;48.314;11.562;2023-06-22T08:41:57;11.25;;;5.45;;
36585;SDS011;22591;48.314;11.562;2023-06-22T08:44:22;9.10;;;5.60;;
36585;SDS011;22591;48.314;11.562;2023-06-22T08:46:48;8.38;;;6.05;;
36585;SDS011;22591;48.314;11.562;2023-06-22T08:49:13;7.10;;;4.93;;
36585;SDS011;22591;48.314;11.562;2023-06-22T08:51:39;10.95;;;5.63;;
36585;SDS011;22591;48.314;11.562;2023-06-22T08:54:05;11.68;;;5.40;;
36585;SDS011;22591;48.314;11.562;2023-06-22T08:56:31;14.45;;;5.80;;
36585;SDS011;22591;48.314;11.562;2023-06-22T08:58:56;12.43;;;6.38;;
36585;SDS011;22591;48.314;11.562;2023-06-22T09:01:22;9.63;;;6.05;;
36585;SDS011;22591;48.314;11.562;2023-06-22T09:03:48;11.75;;;5.57;;
36585;SDS011;22591;48.314;11.562;2023-06-22T09:06:20;18.58;;;5.90;;
36585;SDS011;22591;48.314;11.562;2023-06-22T09:08:46;10.23;;;6.00;;
36585;SDS011;22591;48.314;11.562;2023-06-22T09:11:12;16.10;;;6.03;;
36585;SDS011;22591;48.314;11.562;2023-06-22T09:13:38;12.20;;;5.97;;
36585;SDS011;22591;48.314;11.562;2023-06-22T09:16:03;7.35;;;5.22;;
36585;SDS011;22591;48.314;11.562;2023-06-22T09:18:31;10.50;;;5.45;;
36585;SDS011;22591;48.314;11.562;2023-06-22T09:20:56;14.95;;;6.40;;
36585;SDS011;22591;48.314;11.562;2023-06-22T09:23:22;9.88;;;5.97;;
36585;SDS011;22591;48.314;11.562;2023-06-22T09:25:48;11.25;;;6.00;;
36585;SDS011;22591;48.314;11.562;2023-06-22T09:28:14;11.57;;;5.95;;
36585;SDS011;22591;48.314;11.562;2023-06-22T09:30:40;10.65;;;6.38;;
36585;SDS011;22591;48.314;11.562;2023-06-22T09:33:05;7.47;;;5.57;;
36585;SDS011;22591;48.314;11.562;2023-06-22T09:35:31;11.40;;;6.20;;
36585;SDS011;22591;48.314;11.562;2023-06-22T09:37:56;14.23;;;5.85;;
36585;SDS011;22591;48.314;11.562;2023-06-22T09:40:22;15.82;;;6.13;;
36585;SDS011;22591;48.314;11.562;2023-06-22T09:42:47;11.07;;;5.75;;
36585;SDS011;22591;48.314;11.562;2023-06-22T09:45:13;15.02;;;6.10;;
36585;SDS011;22591;48.314;11.562;2023-06-22T09:47:38;13.98;;;6.18;;
36585;SDS011;22591;48.314;11.562;2023-06-22T09:50:05;9.93;;;5.38;;
36585;SDS011;22591;48.314;11.562;2023-06-22T09:52:31;15.50;;;6.50;;
36585;SDS011;22591;48.314;11.562;2023-06-22T09:54:56;6.68;;;4.80;;
36585;SDS011;22591;48.314;11.562;2023-06-22T09:57:22;10.07;;;5.75;;
36585;SDS011;22591;48.314;11.562;2023-06-22T09:59:47;9.57;;;6.30;;
36585;SDS011;22591;48.314;11.562;2023-06-22T10:02:13;9.63;;;5.88;;
36585;SDS011;22591;48.314;11.562;2023-06-22T10:04:38;11.60;;;6.35;;
36585;SDS011;22591;48.314;11.562;2023-06-22T10:07:05;15.40;;;5.97;;
36585;SDS011;22591;48.314;11.562;2023-06-22T10:09:31;8.60;;;5.60;;
36585;SDS011;22591;48.314;11.562;2023-06-22T10:11:56;12.07;;;6.20;;
36585;SDS011;22591;48.314;11.562;2023-06-22T10:14:22;9.52;;;6.53;;
36585;SDS011;22591;48.314;11.562;2023-06-22T10:16:49;7.07;;;5.43;;
36585;SDS011;22591;48.314;11.562;2023-06-22T10:19:16;15.85;;;6.65;;
36585;SDS011;22591;48.314;11.562;2023-06-22T10:21:41;15.63;;;6.57;;
36585;SDS011;22591;48.314;11.562;2023-06-22T10:24:07;14.63;;;6.35;;
36585;SDS011;22591;48.314;11.562;2023-06-22T10:26:33;9.00;;;6.00;;
36585;SDS011;22591;48.314;11.562;2023-06-22T10:28:59;14.23;;;5.95;;
36585;SDS011;22591;48.314;11.562;2023-06-22T10:31:26;10.85;;;6.13;;
36585;SDS011;22591;48.314;11.562;2023-06-22T10:33:52;16.17;;;7.15;;
36585;SDS011;22591;48.314;11.562;2023-06-22T10:36:18;11.98;;;6.63;;
36585;SDS011;22591;48.314;11.562;2023-06-22T10:38:44;8.70;;;6.15;;
36585;SDS011;22591;48.314;11.562;2023-06-22T10:41:10;13.07;;;6.30;;
36585;SDS011;22591;48.314;11.562;2023-06-22T10:43:36;13.43;;;6.47;;
36585;SDS011;22591;48.314;11.562;2023-06-22T10:46:01;9.88;;;5.45;;
36585;SDS011;22591;48.314;11.562;2023-06-22T10:48:27;9.13;;;5.63;;
36585;SDS011;22591;48.314;11.562;2023-06-22T10:50:52;13.27;;;6.53;;
36585;SDS011;22591;48.314;11.562;2023-06-22T10:53:18;11.02;;;5.63;;
36585;SDS011;22591;48.314;11.562;2023-06-22T10:55:44;9.15;;;5.18;;
36585;SDS011;22591;48.314;11.562;2023-06-22T10:58:09;13.70;;;6.68;;
36585;SDS011;22591;48.314;11.562;2023-06-22T11:00:35;12.93;;;5.70;;
36585;SDS011;22591;48.314;11.562;2023-06-22T11:03:00;10.23;;;5.53;;
36585;SDS011;22591;48.314;11.562;2023-06-22T11:05:26;12.18;;;5.93;;
36585;SDS011;22591;48.314;11.562;2023-06-22T11:07:51;9.63;;;6.30;;
36585;SDS011;22591;48.314;11.562;2023-06-22T11:10:17;12.52;;;5.88;;
36585;SDS011;22591;48.314;11.562;2023-06-22T11:12:43;12.90;;;6.82;;
36585;SDS011;22591;48.314;11.562;2023-06-22T11:15:08;12.20;;;5.35;;
36585;SDS011;22591;48.314;11.562;2023-06-22T11:17:34;9.68;;;5.63;;
36585;SDS011;22591;48.314;11.562;2023-06-22T11:20:00;14.50;;;7.05;;
36585;SDS011;22591;48.314;11.562;2023-06-22T11:22:29;11.38;;;5.75;;
36585;SDS011;22591;48.314;11.562;2023-06-22T11:24:58;14.43;;;7.00;;
36585;SDS011;22591;48.314;11.562;2023-06-22T11:27:23;16.83;;;6.50;;
36585;SDS011;22591;48.314;11.562;2023-06-22T11:29:49;10.23;;;5.70;;
36585;SDS011;22591;48.314;11.562;2023-06-22T11:32:15;12.23;;;5.80;;
36585;SDS011;22591;48.314;11.562;2023-06-22T11:34:40;9.90;;;5.55;;
36585;SDS011;22591;48.314;11.562;2023-06-22T11:37:06;15.18;;;5.65;;
36585;SDS011;22591;48.314;11.562;2023-06-22T11:39:31;10.40;;;6.00;;
36585;SDS011;22591;48.314;11.562;2023-06-22T11:41:57;12.15;;;5.47;;
36585;SDS011;22591;48.314;11.562;2023-06-22T11:44:22;12.00;;;5.90;;
36585;SDS011;22591;48.314;11.562;2023-06-22T11:46:48;9.73;;;5.75;;
36585;SDS011;22591;48.314;11.562;2023-06-22T11:49:13;11.77;;;5.47;;
36585;SDS011;22591;48.314;11.562;2023-06-22T11:51:39;10.18;;;6.32;;
36585;SDS011;22591;48.314;11.562;2023-06-22T11:54:04;13.25;;;6.10;;
36585;SDS011;22591;48.314;11.562;2023-06-22T11:56:30;11.38;;;5.07;;
36585;SDS011;22591;48.314;11.562;2023-06-22T11:58:57;10.63;;;6.28;;
36585;SDS011;22591;48.314;11.562;2023-06-22T12:01:22;13.48;;;6.43;;
36585;SDS011;22591;48.314;11.562;2023-06-22T12:03:47;12.10;;;6.03;;
36585;SDS011;22591;48.314;11.562;2023-06-22T12:06:13;11.20;;;5.70;;
36585;SDS011;22591;48.314;11.562;2023-06-22T12:08:39;22.05;;;6.53;;
36585;SDS011;22591;48.314;11.562;2023-06-22T12:11:04;11.60;;;5.93;;
36585;SDS011;22591;48.314;11.562;2023-06-22T12:13:30;11.70;;;6.32;;
36585;SDS011;22591;48.314;11.562;2023-06-22T12:15:55;11.20;;;5.93;;
36585;SDS011;22591;48.314;11.562;2023-06-22T12:18:21;16.35;;;5.90;;
36585;SDS011;22591;48.314;11.562;2023-06-22T12:20:47;13.38;;;6.32;;
36585;SDS011;22591;48.314;11.562;2023-06-22T12:23:12;11.13;;;6.00;;
36585;SDS011;22591;48.314;11.562;2023-06-22T12:25:39;11.93;;;5.75;;
36585;SDS011;22591;48.314;11.562;2023-06-22T12:28:05;17.30;;;5.45;;
36585;SDS011;22591;48.314;11.562;2023-06-22T12:30:30;16.30;;;6.13;;
36585;SDS011;22591;48.314;11.562;2023-06-22T12:32:57;11.15;;;5.30;;
36585;SDS011;22591;48.314;11.562;2023-06-22T12:35:23;12.38;;;5.72;;
36585;SDS011;22591;48.314;11.562;2023-06-22T12:37:48;11.38;;;5.88;;
36585;SDS011;22591;48.314;11.562;2023-06-22T12:40:14;15.30;;;5.25;;
36585;SDS011;22591;48.314;11.562;2023-06-22T12:42:40;11.82;;;5.55;;
36585;SDS011;22591;48.314;11.562;2023-06-22T12:45:06;12.73;;;5.70;;
36585;SDS011;22591;48.314;11.562;2023-06-22T12:47:32;11.13;;;5.30;;
36585;SDS011;22591;48.314;11.562;2023-06-22T12:49:58;16.60;;;6.40;;
36585;SDS011;22591;48.314;11.562;2023-06-22T12:52:24;15.88;;;6.55;;
36585;SDS011;22591;48.314;11.562;2023-06-22T12:54:49;9.52;;;5.20;;
36585;SDS011;22591;48.314;11.562;2023-06-22T12:57:15;9.50;;;5.53;;
36585;SDS011;22591;48.314;11.562;2023-06-22T12:59:42;13.10;;;5.60;;
36585;SDS011;22591;48.314;11.562;2023-06-22T13:02:08;11.05;;;5.18;;
36585;SDS011;22591;48.314;11.562;2023-06-22T13:04:33;15.63;;;5.63;;
36585;SDS011;22591;48.314;11.562;2023-06-22T13:06:59;12.75;;;5.82;;
36585;SDS011;22591;48.314;11.562;2023-06-22T13:09:25;16.48;;;5.82;;
36585;SDS011;22591;48.314;11.562;2023-06-22T13:11:50;16.63;;;6.18;;
36585;SDS011;22591;48.314;11.562;2023-06-22T13:14:17;13.57;;;6.07;;
36585;SDS011;22591;48.314;11.562;2023-06-22T13:16:42;16.88;;;6.18;;
36585;SDS011;22591;48.314;11.562;2023-06-22T13:19:08;23.90;;;6.05;;
36585;SDS011;22591;48.314;11.562;2023-06-22T13:21:34;12.98;;;6.35;;
36585;SDS011;22591;48.314;11.562;2023-06-22T13:23:59;13.73;;;6.25;;
36585;SDS011;22591;48.314;11.562;2023-06-22T13:26:26;10.70;;;5.43;;
36585;SDS011;22591;48.314;11.562;2023-06-22T13:28:53;18.92;;;5.97;;
36585;SDS011;22591;48.314;11.562;2023-06-22T13:31:19;19.50;;;6.30;;
36585;SDS011;22591;48.314;11.562;2023-06-22T13:33:44;16.70;;;5.88;;
36585;SDS011;22591;48.314;11.562;2023-06-22T13:36:12;11.73;;;5.43;;
36585;SDS011;22591;48.314;11.562;2023-06-22T13:38:38;12.43;;;5.35;;
36585;SDS011;22591;48.314;11.562;2023-06-22T13:41:04;12.75;;;5.72;;
36585;SDS011;22591;48.314;11.562;2023-06-22T13:43:30;17.27;;;6.13;;
36585;SDS011;22591;48.314;11.562;2023-06-22T13:45:56;12.43;;;5.60;;
36585;SDS011;22591;48.314;11.562;2023-06-22T13:48:21;14.52;;;5.22;;
36585;SDS011;22591;48.314;11.562;2023-06-22T13:50:48;14.98;;;5.63;;
36585;SDS011;22591;48.314;11.562;2023-06-22T13:53:14;11.27;;;5.45;;
36585;SDS011;22591;48.314;11.562;2023-06-22T13:55:39;16.05;;;5.50;;
36585;SDS011;22591;48.314;11.562;2023-06-22T13:58:05;16.52;;;5.60;;
36585;SDS011;22591;48.314;11.562;2023-06-22T14:00:31;8.73;;;5.40;;
36585;SDS011;22591;48.314;11.562;2023-06-22T14:02:57;17.90;;;6.82;;
36585;SDS011;22591;48.314;11.562;2023-06-22T14:05:23;17.58;;;6.00;;
36585;SDS011;22591;48.314;11.562;2023-06-22T14:07:48;10.38;;;5.30;;
36585;SDS011;22591;48.314;11.562;2023-06-22T14:10:14;14.05;;;5.50;;
36585;SDS011;22591;48.314;11.562;2023-06-22T14:12:39;19.42;;;5.50;;
36585;SDS011;22591;48.314;11.562;2023-06-22T14:15:05;12.40;;;5.28;;
36585;SDS011;22591;48.314;11.562;2023-06-22T14:17:31;15.02;;;5.32;;
36585;SDS011;22591;48.314;11.562;2023-06-22T14:20:03;13.23;;;5.50;;
36585;SDS011;22591;48.314;11.562;2023-06-22T14:22:30;12.93;;;5.93;;
36585;SDS011;22591;48.314;11.562;2023-06-22T14:24:56;15.98;;;5.63;;
36585;SDS011;22591;48.314;11.562;2023-06-22T14:27:22;15.07;;;5.47;;
36585;SDS011;22591;48.314;11.562;2023-06-22T14:29:48;13.40;;;5.90;;
36585;SDS011;22591;48.314;11.562;2023-06-22T14:32:13;12.98;;;5.57;;
36585;SDS011;22591;48.314;11.562;2023-06-22T14:34:39;22.80;;;6.13;;